Terminal Aerodrome Forecast
Issued by NWS

Home | Current Version | Previous Version | Text Only | Print | Product List | Glossary On
Versions: 1 2 3 4 5 6 7 8 9 10 11 12 13 14 15 16 17 18 19 20 21 22 23 24 25 26 27
000
FTUS43 KDLH 251100 RRA
TAFHIB
TAF
KHIB 251141Z 2512/2612 06004KT P6SM OVC025
     FM251700 14005KT P6SM SCT025 BKN160
     FM252100 17004KT P6SM BKN080
     FM260300 17006KT P6SM BKN015 OVC040
     FM260600 18006KT 3SM -SN BR OVC015=

USA.gov is the U.S. government's official web portal to all federal, state and local government web resources and services.